createdAt,value
2018-09-21T00:00:31.848Z,5.43
2018-09-21T00:10:35.130Z,5.97
2018-09-21T00:20:38.369Z,5.80
2018-09-21T00:30:42.431Z,5.70
2018-09-21T00:40:45.667Z,6.07
2018-09-21T00:50:48.922Z,6.47
2018-09-21T01:00:52.742Z,5.97
2018-09-21T01:10:56.012Z,6.73
2018-09-21T01:20:59.253Z,6.23
2018-09-21T01:31:02.580Z,6.20
2018-09-21T01:41:05.845Z,6.33
2018-09-21T01:51:09.093Z,6.23
2018-09-21T02:01:12.412Z,6.33
2018-09-21T02:11:15.650Z,6.83
2018-09-21T02:21:18.901Z,6.33
2018-09-21T02:31:22.202Z,7.10
2018-09-21T02:41:25.455Z,7.10
2018-09-21T02:51:28.661Z,6.97
2018-09-21T03:01:31.895Z,7.57
2018-09-21T03:11:35.195Z,7.03
2018-09-21T03:21:38.472Z,6.73
2018-09-21T03:31:41.726Z,7.37
2018-09-21T03:41:44.962Z,7.50
2018-09-21T03:51:48.202Z,7.53
2018-09-21T04:01:51.474Z,7.10
2018-09-21T04:11:54.700Z,7.60
2018-09-21T04:21:57.951Z,6.67
2018-09-21T04:32:01.331Z,7.63
2018-09-21T04:42:04.545Z,7.77
2018-09-21T04:52:07.854Z,7.30
2018-09-21T05:02:11.116Z,7.83
2018-09-21T05:12:16.609Z,8.87
2018-09-21T05:22:19.869Z,9.03
2018-09-21T05:32:23.205Z,10.10
2018-09-21T05:42:26.458Z,9.37
2018-09-21T05:52:29.753Z,9.53
2018-09-21T06:02:33.134Z,9.47
2018-09-21T06:12:37.110Z,11.25
2018-09-21T06:22:45.103Z,10.70
2018-09-21T06:32:43.699Z,9.70
2018-09-21T06:42:47.075Z,11.13
2018-09-21T06:52:50.417Z,10.07
2018-09-21T07:02:53.774Z,14.23
2018-09-21T07:12:57.125Z,16.40
2018-09-21T07:23:00.513Z,27.00
2018-09-21T07:33:04.064Z,21.90
2018-09-21T07:43:07.521Z,9.57
2018-09-21T07:53:10.784Z,8.57
2018-09-21T08:03:14.059Z,14.03
2018-09-21T08:13:17.334Z,13.17
2018-09-21T08:23:20.626Z,7.33
2018-09-21T08:33:23.880Z,6.67
2018-09-21T08:43:27.125Z,6.43
2018-09-21T08:53:30.388Z,5.97
2018-09-21T09:03:33.673Z,6.27
2018-09-21T09:13:37.689Z,5.53
2018-09-21T09:23:41.007Z,5.63
2018-09-21T09:33:44.252Z,6.20
2018-09-21T09:43:47.493Z,6.03
2018-09-21T09:53:50.771Z,5.60
2018-09-21T10:03:54.002Z,6.30
2018-09-21T10:13:57.233Z,6.00
2018-09-21T10:24:00.575Z,5.70
2018-09-21T10:34:03.781Z,5.80
2018-09-21T10:44:07.078Z,5.77
2018-09-21T10:54:11.218Z,5.63
2018-09-21T11:04:14.446Z,7.73
2018-09-21T11:14:17.712Z,5.80
2018-09-21T11:24:21.031Z,6.87
2018-09-21T11:34:24.469Z,7.23
2018-09-21T11:44:28.023Z,6.63
2018-09-21T11:54:31.361Z,6.37
2018-09-21T12:04:34.638Z,5.10
2018-09-21T12:14:37.869Z,5.90
2018-09-21T12:24:41.201Z,4.90
2018-09-21T12:34:44.502Z,5.23
2018-09-21T12:44:47.878Z,3.93
2018-09-21T12:54:51.160Z,4.37
2018-09-21T13:04:54.461Z,4.00
2018-09-21T13:14:57.706Z,3.60
2018-09-21T13:25:01.011Z,3.40
2018-09-21T13:35:04.261Z,2.80
2018-09-21T13:45:07.515Z,2.73
2018-09-21T13:55:10.761Z,2.77
2018-09-21T14:05:14.026Z,2.57
2018-09-21T14:15:17.287Z,2.67
2018-09-21T14:25:20.558Z,3.37
2018-09-21T14:35:23.850Z,2.87
2018-09-21T14:45:27.145Z,2.80
2018-09-21T14:55:30.499Z,2.73
2018-09-21T15:05:33.753Z,3.53
2018-09-21T15:15:37.029Z,1.00
2018-09-21T15:25:40.343Z,0.50
2018-09-21T15:35:43.642Z,1.07
2018-09-21T15:45:46.973Z,1.20
2018-09-21T15:55:50.214Z,1.30
2018-09-21T16:05:53.531Z,1.50
2018-09-21T16:15:56.689Z,1.07
2018-09-21T16:25:59.953Z,1.20
2018-09-21T16:36:03.489Z,1.20
2018-09-21T16:46:06.787Z,1.07
2018-09-21T16:56:10.027Z,2.67
2018-09-21T17:06:13.374Z,1.20
2018-09-21T17:16:16.638Z,2.10
2018-09-21T17:26:19.913Z,1.67
2018-09-21T17:36:23.254Z,1.43
2018-09-21T17:46:26.510Z,1.80
2018-09-21T17:56:29.757Z,1.63
2018-09-21T18:06:33.037Z,1.53
2018-09-21T18:16:36.261Z,1.80
2018-09-21T18:26:39.522Z,1.63
2018-09-21T18:36:42.779Z,1.30
2018-09-21T18:46:46.071Z,1.60
2018-09-21T18:56:49.286Z,1.73
2018-09-21T19:06:52.563Z,1.60
2018-09-21T19:16:55.837Z,1.70
2018-09-21T19:26:59.146Z,1.53
2018-09-21T19:37:02.486Z,1.40
2018-09-21T19:47:05.781Z,2.07
2018-09-21T19:57:09.053Z,1.70
2018-09-21T20:07:12.363Z,2.07
2018-09-21T20:17:15.598Z,2.53
2018-09-21T20:27:18.853Z,2.30
2018-09-21T20:37:22.144Z,2.67
2018-09-21T20:47:25.401Z,2.83
2018-09-21T20:57:28.652Z,3.17
2018-09-21T21:07:31.880Z,3.87
2018-09-21T21:17:35.149Z,3.90
2018-09-21T21:27:38.468Z,4.40
2018-09-21T21:37:42.083Z,4.57
2018-09-21T21:47:45.351Z,4.90
2018-09-21T21:57:48.584Z,4.27
2018-09-21T22:07:51.925Z,4.73
2018-09-21T22:17:55.131Z,3.30
2018-09-21T22:27:58.367Z,2.63
2018-09-21T22:38:01.673Z,2.03
2018-09-21T22:48:05.029Z,1.60
2018-09-21T22:58:08.262Z,1.63
2018-09-21T23:08:11.841Z,1.40
2018-09-21T23:18:15.194Z,1.20
2018-09-21T23:28:18.418Z,1.30
2018-09-21T23:38:22.302Z,1.40
2018-09-21T23:48:25.616Z,1.27
2018-09-21T23:58:28.885Z,1.20
